createdAt,value
2018-12-15T00:00:35.735Z,13.53
2018-12-15T00:02:36.778Z,13.33
2018-12-15T00:04:37.803Z,12.93
2018-12-15T00:06:38.806Z,13.87
2018-12-15T00:08:39.822Z,13.07
2018-12-15T00:10:40.860Z,12.97
2018-12-15T00:12:41.862Z,14.30
2018-12-15T00:14:42.871Z,13.70
2018-12-15T00:16:43.897Z,13.13
2018-12-15T00:18:44.899Z,13.10
2018-12-15T00:20:45.914Z,13.43
2018-12-15T00:22:46.921Z,13.73
2018-12-15T00:24:48.051Z,13.17
2018-12-15T00:26:49.067Z,13.90
2018-12-15T00:28:50.254Z,13.93
2018-12-15T00:30:51.259Z,14.80
2018-12-15T00:32:52.291Z,14.00
2018-12-15T00:34:53.297Z,15.27
2018-12-15T00:36:54.430Z,13.87
2018-12-15T00:38:55.355Z,14.67
2018-12-15T00:40:56.423Z,14.77
2018-12-15T00:42:57.455Z,14.83
2018-12-15T00:44:58.462Z,15.10
2018-12-15T00:46:59.466Z,14.50
2018-12-15T00:49:00.534Z,14.50
2018-12-15T00:51:01.543Z,14.77
2018-12-15T00:53:02.575Z,14.57
2018-12-15T00:55:03.583Z,15.17
2018-12-15T00:57:04.606Z,14.07
2018-12-15T00:59:05.615Z,13.90
2018-12-15T01:01:06.727Z,13.80
2018-12-15T01:03:07.747Z,14.57
2018-12-15T01:05:08.755Z,14.37
2018-12-15T01:07:09.886Z,13.77
2018-12-15T01:09:10.891Z,14.53
2018-12-15T01:11:11.928Z,14.67
2018-12-15T01:13:12.951Z,13.70
2018-12-15T01:15:15.999Z,14.00
2018-12-15T01:17:20.415Z,14.60
2018-12-15T01:19:20.041Z,14.43
2018-12-15T01:21:21.166Z,15.03
2018-12-15T01:23:22.171Z,15.83
2018-12-15T01:25:23.194Z,14.53
2018-12-15T01:27:24.200Z,14.80
2018-12-15T01:29:25.211Z,14.57
2018-12-15T01:31:26.230Z,14.33
2018-12-15T01:33:27.263Z,15.47
2018-12-15T01:35:28.270Z,15.57
2018-12-15T01:37:29.274Z,14.57
2018-12-15T01:39:30.284Z,15.70
2018-12-15T01:41:31.307Z,14.67
2018-12-15T01:43:32.311Z,15.30
2018-12-15T01:45:33.333Z,15.40
2018-12-15T01:47:34.454Z,15.70
2018-12-15T01:49:35.472Z,15.70
2018-12-15T01:51:36.569Z,15.27
2018-12-15T01:53:37.596Z,15.03
2018-12-15T01:55:38.707Z,15.70
2018-12-15T01:57:39.723Z,15.20
2018-12-15T01:59:40.747Z,15.70
2018-12-15T02:01:41.755Z,15.70
2018-12-15T02:03:42.779Z,15.63
2018-12-15T02:05:43.802Z,15.83
2018-12-15T02:07:44.812Z,15.67
2018-12-15T02:09:45.831Z,15.30
2018-12-15T02:11:46.967Z,15.47
2018-12-15T02:13:47.991Z,15.70
2018-12-15T02:15:49.018Z,15.40
2018-12-15T02:17:50.045Z,14.53
2018-12-15T02:19:51.067Z,15.23
2018-12-15T02:21:52.166Z,14.77
2018-12-15T02:23:53.183Z,15.63
2018-12-15T02:25:54.186Z,15.13
2018-12-15T02:27:55.187Z,15.07
2018-12-15T02:29:56.243Z,14.97
2018-12-15T02:31:57.254Z,15.60
2018-12-15T02:33:58.392Z,15.07
2018-12-15T02:35:59.397Z,15.20
2018-12-15T02:38:00.510Z,14.10
2018-12-15T02:40:01.542Z,14.47
2018-12-15T02:42:02.672Z,14.87
2018-12-15T02:44:03.679Z,13.80
2018-12-15T02:46:04.707Z,15.47
2018-12-15T02:48:05.723Z,14.27
2018-12-15T02:50:06.731Z,14.90
2018-12-15T02:52:07.784Z,14.30
2018-12-15T02:54:08.793Z,14.93
2018-12-15T02:56:09.810Z,15.93
2018-12-15T02:58:10.946Z,15.97
2018-12-15T03:00:12.389Z,15.53
2018-12-15T03:02:13.411Z,14.63
2018-12-15T03:04:14.451Z,15.57
2018-12-15T03:06:15.463Z,16.13
2018-12-15T03:08:16.509Z,15.17
2018-12-15T03:10:17.631Z,15.90
2018-12-15T03:12:18.766Z,15.60
2018-12-15T03:14:19.799Z,15.13
2018-12-15T03:16:20.850Z,15.57
2018-12-15T03:18:21.851Z,15.60
2018-12-15T03:20:22.967Z,15.90
2018-12-15T03:22:23.991Z,16.13
2018-12-15T03:24:25.003Z,14.87
2018-12-15T03:26:26.143Z,16.27
2018-12-15T03:28:27.171Z,15.57
2018-12-15T03:30:28.220Z,15.70
2018-12-15T03:32:29.232Z,16.30
2018-12-15T03:34:30.352Z,15.30
2018-12-15T03:36:31.385Z,16.23
2018-12-15T03:38:32.507Z,16.07
2018-12-15T03:40:33.526Z,16.30
2018-12-15T03:42:34.635Z,15.67
2018-12-15T03:44:35.748Z,15.60
2018-12-15T03:46:36.860Z,15.73
2018-12-15T03:48:37.874Z,15.80
2018-12-15T03:50:38.998Z,15.93
2018-12-15T03:52:40.018Z,15.60
2018-12-15T03:54:41.039Z,14.90
2018-12-15T03:56:42.112Z,15.13
2018-12-15T03:58:43.229Z,15.00
2018-12-15T04:00:44.380Z,14.83
2018-12-15T04:02:45.487Z,15.73
2018-12-15T04:04:46.828Z,16.40
2018-12-15T04:06:47.859Z,16.30
2018-12-15T04:08:48.993Z,16.20
2018-12-15T04:10:50.004Z,16.47
2018-12-15T04:12:51.032Z,16.83
2018-12-15T04:14:52.044Z,16.57
2018-12-15T04:16:53.064Z,15.97
2018-12-15T04:18:54.067Z,16.47
2018-12-15T04:20:55.074Z,16.63
2018-12-15T04:22:56.095Z,16.77
2018-12-15T04:24:57.116Z,16.13
2018-12-15T04:26:58.205Z,16.27
2018-12-15T04:28:59.222Z,15.90
2018-12-15T04:31:00.138Z,17.47
2018-12-15T04:33:01.168Z,17.10
2018-12-15T04:35:02.180Z,17.13
2018-12-15T04:37:03.224Z,16.57
2018-12-15T04:39:04.232Z,16.07
2018-12-15T04:41:05.240Z,15.27
2018-12-15T04:43:06.259Z,16.43
2018-12-15T04:45:07.276Z,15.80
2018-12-15T04:47:08.612Z,16.67
2018-12-15T04:49:09.687Z,15.70
2018-12-15T04:51:10.713Z,17.37
2018-12-15T04:53:11.819Z,16.13
2018-12-15T04:55:12.838Z,15.83
2018-12-15T04:57:13.863Z,15.27
2018-12-15T04:59:14.899Z,16.73
2018-12-15T05:01:15.915Z,15.67
2018-12-15T05:03:16.923Z,16.00
2018-12-15T05:05:17.951Z,15.60
2018-12-15T05:07:18.974Z,15.87
2018-12-15T05:09:19.986Z,16.57
2018-12-15T05:11:21.002Z,16.17
2018-12-15T05:13:22.120Z,15.70
2018-12-15T05:15:23.143Z,17.37
2018-12-15T05:17:24.184Z,17.37
2018-12-15T05:19:25.192Z,16.20
2018-12-15T05:21:26.220Z,16.63
2018-12-15T05:23:27.227Z,17.37
2018-12-15T05:25:28.238Z,16.80
2018-12-15T05:27:29.376Z,16.57
2018-12-15T05:29:30.423Z,16.90
2018-12-15T05:31:31.427Z,17.57
2018-12-15T05:33:32.454Z,17.83
2018-12-15T05:35:33.478Z,17.57
2018-12-15T05:37:34.592Z,16.70
2018-12-15T05:39:35.624Z,17.57
2018-12-15T05:41:36.590Z,18.90
2018-12-15T05:43:37.679Z,17.67
2018-12-15T05:45:38.695Z,16.93
2018-12-15T05:47:39.719Z,17.63
2018-12-15T05:49:40.724Z,17.53
2018-12-15T05:51:41.848Z,17.27
2018-12-15T05:53:42.854Z,17.47
2018-12-15T05:55:43.880Z,17.00
2018-12-15T05:57:44.907Z,16.43
2018-12-15T05:59:46.033Z,17.03
2018-12-15T06:01:47.151Z,16.90
2018-12-15T06:03:48.286Z,18.07
2018-12-15T06:05:49.399Z,15.83
2018-12-15T06:07:50.527Z,16.63
2018-12-15T06:09:51.556Z,17.27
2018-12-15T06:11:52.580Z,16.83
2018-12-15T06:13:53.615Z,17.80
2018-12-15T06:15:54.687Z,17.30
2018-12-15T06:17:55.692Z,18.27
2018-12-15T06:19:56.719Z,17.80
2018-12-15T06:21:57.723Z,17.40
2018-12-15T06:23:58.730Z,17.17
2018-12-15T06:25:59.750Z,17.70
2018-12-15T06:28:00.754Z,19.10
2018-12-15T06:30:01.779Z,18.47
2018-12-15T06:32:02.891Z,17.33
2018-12-15T06:34:04.023Z,17.70
2018-12-15T06:36:05.026Z,17.67
2018-12-15T06:38:06.099Z,17.63
2018-12-15T06:40:07.111Z,18.47
2018-12-15T06:42:08.155Z,18.30
2018-12-15T06:44:09.183Z,17.73
2018-12-15T06:46:10.415Z,17.50
2018-12-15T06:48:11.443Z,17.90
2018-12-15T06:50:12.624Z,17.93
2018-12-15T06:52:13.642Z,18.63
2018-12-15T06:54:14.667Z,17.93
2018-12-15T06:56:15.783Z,18.37
2018-12-15T06:58:16.811Z,18.67
2018-12-15T07:00:17.836Z,20.13
2018-12-15T07:02:18.844Z,19.33
2018-12-15T07:04:19.863Z,18.70
2018-12-15T07:06:20.874Z,18.83
2018-12-15T07:08:21.894Z,18.97
2018-12-15T07:10:22.899Z,18.80
2018-12-15T07:12:24.019Z,18.30
2018-12-15T07:14:25.027Z,18.67
2018-12-15T07:16:26.109Z,18.53
2018-12-15T07:18:27.121Z,17.53
2018-12-15T07:20:28.182Z,17.57
2018-12-15T07:22:29.188Z,18.53
2018-12-15T07:24:30.219Z,19.40
2018-12-15T07:26:31.226Z,18.80
2018-12-15T07:28:32.241Z,18.80
2018-12-15T07:30:33.791Z,19.63
2018-12-15T07:32:34.807Z,19.10
2018-12-15T07:34:35.923Z,18.83
2018-12-15T07:36:36.955Z,19.73
2018-12-15T07:38:37.961Z,19.17
2018-12-15T07:40:38.968Z,19.67
2018-12-15T07:42:39.990Z,19.10
2018-12-15T07:44:41.010Z,19.77
2018-12-15T07:46:42.115Z,19.80
2018-12-15T07:48:43.135Z,19.10
2018-12-15T07:50:44.138Z,19.47
2018-12-15T07:52:45.156Z,19.40
2018-12-15T07:54:46.179Z,20.17
2018-12-15T07:56:47.199Z,20.30
2018-12-15T07:58:48.206Z,19.17
2018-12-15T08:00:49.227Z,19.80
2018-12-15T08:02:50.240Z,18.23
2018-12-15T08:04:51.269Z,21.23
2018-12-15T08:06:52.292Z,20.20
2018-12-15T08:08:53.307Z,20.27
2018-12-15T08:11:00.115Z,19.50
2018-12-15T08:13:02.606Z,18.83
2018-12-15T08:15:03.626Z,19.40
2018-12-15T08:17:04.655Z,19.00
2018-12-15T08:19:05.998Z,19.23
2018-12-15T08:21:07.104Z,19.47
2018-12-15T08:23:08.117Z,19.63
2018-12-15T08:25:09.231Z,20.57
2018-12-15T08:27:10.254Z,20.33
2018-12-15T08:29:11.267Z,20.27
2018-12-15T08:31:12.379Z,19.57
2018-12-15T08:33:13.414Z,19.43
2018-12-15T08:35:14.528Z,19.73
2018-12-15T08:37:15.707Z,20.17
2018-12-15T08:39:16.714Z,19.47
2018-12-15T08:41:17.743Z,18.97
2018-12-15T08:43:18.756Z,19.53
2018-12-15T08:45:19.887Z,19.67
2018-12-15T08:47:20.907Z,19.33
2018-12-15T08:49:21.926Z,19.03
2018-12-15T08:51:23.307Z,19.10
2018-12-15T08:53:24.318Z,19.13
2018-12-15T08:55:25.335Z,20.80
2018-12-15T08:57:26.263Z,19.90
2018-12-15T08:59:27.267Z,19.53
2018-12-15T09:01:28.279Z,20.70
2018-12-15T09:03:29.299Z,19.40
2018-12-15T09:05:30.323Z,20.27
2018-12-15T09:07:31.331Z,20.07
2018-12-15T09:09:32.352Z,8.10
2018-12-15T09:11:33.364Z,39.07
2018-12-15T09:13:34.491Z,27.87
2018-12-15T09:15:35.535Z,20.13
2018-12-15T09:17:36.547Z,19.20
2018-12-15T09:19:37.555Z,19.10
2018-12-15T09:21:38.643Z,19.57
2018-12-15T09:23:39.658Z,19.13
2018-12-15T09:25:40.618Z,19.90
2018-12-15T09:27:41.632Z,20.13
2018-12-15T09:29:42.771Z,19.27
2018-12-15T09:31:43.755Z,20.30
2018-12-15T09:33:45.010Z,19.83
2018-12-15T09:35:46.059Z,18.80
2018-12-15T09:37:47.220Z,18.97
2018-12-15T09:39:48.287Z,18.80
2018-12-15T09:41:50.725Z,19.27
2018-12-15T09:43:51.806Z,19.10
2018-12-15T09:45:52.930Z,19.87
2018-12-15T09:47:54.012Z,19.00
2018-12-15T09:49:55.035Z,20.10
2018-12-15T09:51:56.108Z,19.30
2018-12-15T09:53:57.248Z,20.53
2018-12-15T09:55:58.263Z,21.40
2018-12-15T09:57:59.292Z,19.40
2018-12-15T10:00:00.307Z,19.90
2018-12-15T10:02:01.387Z,19.37
2018-12-15T10:04:03.036Z,19.70
2018-12-15T10:06:03.963Z,19.83
2018-12-15T10:08:04.975Z,20.20
2018-12-15T10:10:06.012Z,18.83
2018-12-15T10:12:07.026Z,20.50
2018-12-15T10:14:08.050Z,23.12
2018-12-15T10:16:09.067Z,20.77
2018-12-15T10:18:10.083Z,20.10
2018-12-15T10:20:11.108Z,20.23
2018-12-15T10:22:12.118Z,19.87
2018-12-15T10:24:13.131Z,20.00
2018-12-15T10:26:14.171Z,19.30
2018-12-15T10:28:15.222Z,19.27
2018-12-15T10:30:22.095Z,19.57
2018-12-15T10:32:28.883Z,18.47
2018-12-15T10:34:29.820Z,18.13
2018-12-15T10:36:30.877Z,18.70
2018-12-15T10:38:31.903Z,19.37
2018-12-15T10:40:32.922Z,18.27
2018-12-15T10:42:34.040Z,19.00
2018-12-15T10:44:35.057Z,19.37
2018-12-15T10:46:36.108Z,19.60
2018-12-15T10:48:37.122Z,19.77
2018-12-15T10:50:38.134Z,20.03
2018-12-15T10:52:39.188Z,20.13
2018-12-15T10:54:40.210Z,20.43
2018-12-15T10:56:41.228Z,20.20
2018-12-15T10:58:42.246Z,19.87
2018-12-15T11:00:49.183Z,19.93
2018-12-15T11:02:50.383Z,19.57
2018-12-15T11:04:51.399Z,18.90
2018-12-15T11:06:52.407Z,18.77
2018-12-15T11:08:53.435Z,19.53
2018-12-15T11:10:54.539Z,18.87
2018-12-15T11:12:55.563Z,19.73
2018-12-15T11:14:56.589Z,19.43
2018-12-15T11:16:57.595Z,18.47
2018-12-15T11:18:58.674Z,18.70
2018-12-15T11:20:59.707Z,20.70
2018-12-15T11:23:00.747Z,19.67
2018-12-15T11:25:01.751Z,19.70
2018-12-15T11:27:02.783Z,19.30
2018-12-15T11:29:03.831Z,20.43
2018-12-15T11:31:04.846Z,19.63
2018-12-15T11:33:05.982Z,19.20
2018-12-15T11:35:07.006Z,18.63
2018-12-15T11:37:08.186Z,18.67
2018-12-15T11:39:09.191Z,19.27
2018-12-15T11:41:10.407Z,19.37
2018-12-15T11:43:11.496Z,18.03
2018-12-15T11:45:12.635Z,17.90
2018-12-15T11:47:13.663Z,18.23
2018-12-15T11:49:14.707Z,18.90
2018-12-15T11:51:15.793Z,17.67
2018-12-15T11:53:16.995Z,18.73
2018-12-15T11:55:17.999Z,19.07
2018-12-15T11:57:19.079Z,18.23
2018-12-15T11:59:20.123Z,18.70
2018-12-15T12:01:21.154Z,18.40
2018-12-15T12:03:22.268Z,19.67
2018-12-15T12:05:23.295Z,19.37
2018-12-15T12:07:24.298Z,19.07
2018-12-15T12:09:25.337Z,19.57
2018-12-15T12:11:26.511Z,19.37
2018-12-15T12:13:27.592Z,18.80
2018-12-15T12:15:28.631Z,19.83
2018-12-15T12:17:29.647Z,19.77
2018-12-15T12:19:30.778Z,18.97
2018-12-15T12:21:31.894Z,19.07
2018-12-15T12:23:32.975Z,19.43
2018-12-15T12:25:34.031Z,19.30
2018-12-15T12:27:35.059Z,19.23
2018-12-15T12:29:36.070Z,18.47
2018-12-15T12:31:37.151Z,18.37
2018-12-15T12:33:38.168Z,18.97
2018-12-15T12:35:39.203Z,19.90
2018-12-15T12:37:40.331Z,18.80
2018-12-15T12:39:41.366Z,19.20
2018-12-15T12:41:42.499Z,18.83
2018-12-15T12:43:43.548Z,18.20
2018-12-15T12:45:44.556Z,19.10
2018-12-15T12:47:45.663Z,19.07
2018-12-15T12:49:46.721Z,19.13
2018-12-15T12:51:47.843Z,18.87
2018-12-15T12:53:49.109Z,18.60
2018-12-15T12:55:50.223Z,19.57
2018-12-15T12:57:51.285Z,18.73
2018-12-15T12:59:52.493Z,18.10
2018-12-15T13:01:53.507Z,18.93
2018-12-15T13:03:54.547Z,18.43
2018-12-15T13:05:55.723Z,19.07
2018-12-15T13:07:56.842Z,17.60
2018-12-15T13:09:57.863Z,18.53
2018-12-15T13:11:58.915Z,18.80
2018-12-15T13:13:59.963Z,18.43
2018-12-15T13:16:00.970Z,19.43
2018-12-15T13:18:02.051Z,18.67
2018-12-15T13:20:03.771Z,18.93
2018-12-15T13:22:05.087Z,19.00
2018-12-15T13:24:06.165Z,17.97
2018-12-15T13:26:07.291Z,17.67
2018-12-15T13:28:08.310Z,18.67
2018-12-15T13:30:09.315Z,19.43
2018-12-15T13:32:10.352Z,18.67
2018-12-15T13:34:11.399Z,18.43
2018-12-15T13:36:12.450Z,17.83
2018-12-15T13:38:13.479Z,18.07
2018-12-15T13:40:14.487Z,18.47
2018-12-15T13:42:15.506Z,18.13
2018-12-15T13:44:16.527Z,18.93
2018-12-15T13:46:17.543Z,18.20
2018-12-15T13:48:18.570Z,18.90
2018-12-15T13:50:19.655Z,17.17
2018-12-15T13:52:20.671Z,17.00
2018-12-15T13:54:21.720Z,17.80
2018-12-15T13:56:22.722Z,17.00
2018-12-15T13:58:23.730Z,17.57
2018-12-15T14:00:24.755Z,17.17
2018-12-15T14:02:25.779Z,16.80
2018-12-15T14:04:26.896Z,16.43
2018-12-15T14:06:27.923Z,16.63
2018-12-15T14:08:28.935Z,16.33
2018-12-15T14:10:29.946Z,16.53
2018-12-15T14:12:31.079Z,16.67
2018-12-15T14:14:32.089Z,16.40
2018-12-15T14:16:33.094Z,16.20
2018-12-15T14:18:34.131Z,16.13
2018-12-15T14:20:35.160Z,16.80
2018-12-15T14:22:36.198Z,17.53
2018-12-15T14:24:37.202Z,16.10
2018-12-15T14:26:38.207Z,17.23
2018-12-15T14:28:39.231Z,16.53
2018-12-15T14:30:40.352Z,16.43
2018-12-15T14:32:41.372Z,15.50
2018-12-15T14:34:42.490Z,16.70
2018-12-15T14:36:43.500Z,16.73
2018-12-15T14:38:44.534Z,16.50
2018-12-15T14:40:45.555Z,17.33
2018-12-15T14:42:46.607Z,17.07
2018-12-15T14:44:47.612Z,17.00
2018-12-15T14:46:48.647Z,16.73
2018-12-15T14:48:49.655Z,16.30
2018-12-15T14:50:50.663Z,17.20
2018-12-15T14:52:51.737Z,17.40
2018-12-15T14:54:52.711Z,16.93
2018-12-15T14:56:53.735Z,16.53
2018-12-15T14:58:54.635Z,16.37
2018-12-15T15:00:55.659Z,17.47
2018-12-15T15:02:56.667Z,16.77
2018-12-15T15:04:57.787Z,15.60
2018-12-15T15:06:58.814Z,16.23
2018-12-15T15:08:59.931Z,16.30
2018-12-15T15:11:00.955Z,16.47
2018-12-15T15:13:01.967Z,15.93
2018-12-15T15:15:02.993Z,16.73
2018-12-15T15:17:04.029Z,16.83
2018-12-15T15:19:05.143Z,15.93
2018-12-15T15:21:06.163Z,16.47
2018-12-15T15:23:07.180Z,17.37
2018-12-15T15:25:08.378Z,17.10
2018-12-15T15:27:10.447Z,15.50
2018-12-15T15:29:11.391Z,14.90
2018-12-15T15:31:12.474Z,16.93
2018-12-15T15:33:13.475Z,16.47
2018-12-15T15:35:14.483Z,17.17
2018-12-15T15:37:15.643Z,17.77
2018-12-15T15:39:16.678Z,17.10
2018-12-15T15:41:17.708Z,16.80
2018-12-15T15:43:18.730Z,17.03
2018-12-15T15:45:19.767Z,16.93
2018-12-15T15:47:20.781Z,17.13
2018-12-15T15:49:21.895Z,17.00
2018-12-15T15:51:24.250Z,17.07
2018-12-15T15:53:25.672Z,17.33
2018-12-15T15:55:26.686Z,17.77
2018-12-15T15:57:27.733Z,16.40
2018-12-15T15:59:28.690Z,16.73
2018-12-15T16:01:29.759Z,16.63
2018-12-15T16:03:30.786Z,17.20
2018-12-15T16:05:31.795Z,16.77
2018-12-15T16:07:32.855Z,16.23
2018-12-15T16:09:33.819Z,16.97
2018-12-15T16:11:34.832Z,16.40
2018-12-15T16:13:35.906Z,17.17
2018-12-15T16:15:37.019Z,15.93
2018-12-15T16:17:37.947Z,16.37
2018-12-15T16:19:38.979Z,15.37
2018-12-15T16:21:40.151Z,16.77
2018-12-15T16:23:41.160Z,16.10
2018-12-15T16:25:42.212Z,16.37
2018-12-15T16:27:43.238Z,16.83
2018-12-15T16:29:44.259Z,16.73
2018-12-15T16:31:45.359Z,17.87
2018-12-15T16:33:46.386Z,17.30
2018-12-15T16:35:47.396Z,16.07
2018-12-15T16:37:48.583Z,17.00
2018-12-15T16:39:49.687Z,16.27
2018-12-15T16:41:50.823Z,16.70
2018-12-15T16:43:51.827Z,17.50
2018-12-15T16:45:52.855Z,16.60
2018-12-15T16:47:53.874Z,15.57
2018-12-15T16:49:54.884Z,16.43
2018-12-15T16:51:56.003Z,15.83
2018-12-15T16:53:57.135Z,16.57
2018-12-15T16:55:58.156Z,16.53
2018-12-15T16:57:59.166Z,16.47
2018-12-15T17:00:00.239Z,17.50
2018-12-15T17:02:01.279Z,16.80
2018-12-15T17:04:02.427Z,16.30
2018-12-15T17:06:03.526Z,16.80
2018-12-15T17:08:04.547Z,15.80
2018-12-15T17:10:05.563Z,16.03
2018-12-15T17:12:06.627Z,15.47
2018-12-15T17:14:07.708Z,15.80
2018-12-15T17:16:08.811Z,15.87
2018-12-15T17:18:09.826Z,14.90
2018-12-15T17:20:11.727Z,15.20
2018-12-15T17:22:12.766Z,14.60
2018-12-15T17:24:14.131Z,14.93
2018-12-15T17:26:15.158Z,13.63
2018-12-15T17:28:16.171Z,14.53
2018-12-15T17:30:17.187Z,13.73
2018-12-15T17:32:18.235Z,13.80
2018-12-15T17:34:19.267Z,14.10
2018-12-15T17:36:20.423Z,13.83
2018-12-15T17:38:21.439Z,13.40
2018-12-15T17:40:22.451Z,13.43
2018-12-15T17:42:23.511Z,14.03
2018-12-15T17:44:24.526Z,13.30
2018-12-15T17:46:25.534Z,14.00
2018-12-15T17:48:26.472Z,12.60
2018-12-15T17:50:27.506Z,12.67
2018-12-15T17:52:28.519Z,11.77
2018-12-15T17:54:29.566Z,11.80
2018-12-15T17:56:30.572Z,12.47
2018-12-15T17:58:31.694Z,12.57
2018-12-15T18:00:32.838Z,12.97
2018-12-15T18:02:33.850Z,12.43
2018-12-15T18:04:34.871Z,12.13
2018-12-15T18:06:35.916Z,12.23
2018-12-15T18:08:36.930Z,13.33
2018-12-15T18:10:37.958Z,13.43
2018-12-15T18:12:38.967Z,13.37
2018-12-15T18:14:39.999Z,13.47
2018-12-15T18:16:41.019Z,12.10
2018-12-15T18:18:42.050Z,13.03
2018-12-15T18:20:43.059Z,13.07
2018-12-15T18:22:44.128Z,13.20
2018-12-15T18:24:45.158Z,13.43
2018-12-15T18:26:46.179Z,12.63
2018-12-15T18:28:47.319Z,13.43
2018-12-15T18:30:48.359Z,13.17
2018-12-15T18:32:49.371Z,12.47
2018-12-15T18:34:50.407Z,12.43
2018-12-15T18:36:51.428Z,12.80
2018-12-15T18:38:52.440Z,12.30
2018-12-15T18:40:54.362Z,12.00
2018-12-15T18:42:55.494Z,12.73
2018-12-15T18:44:56.541Z,14.43
2018-12-15T18:46:57.559Z,14.47
2018-12-15T18:48:58.570Z,13.97
2018-12-15T18:50:59.706Z,14.73
2018-12-15T18:53:00.738Z,14.67
2018-12-15T18:55:01.771Z,15.20
2018-12-15T18:57:03.142Z,14.57
2018-12-15T18:59:04.264Z,14.73
2018-12-15T19:01:05.352Z,13.97
2018-12-15T19:03:06.383Z,13.87
2018-12-15T19:05:07.427Z,14.37
2018-12-15T19:07:08.739Z,14.37
2018-12-15T19:09:09.768Z,12.63
2018-12-15T19:11:10.921Z,12.80
2018-12-15T19:13:12.140Z,14.07
2018-12-15T19:15:13.207Z,14.10
2018-12-15T19:17:14.210Z,14.40
2018-12-15T19:19:15.297Z,13.87
2018-12-15T19:21:22.783Z,14.03
2018-12-15T19:23:19.604Z,14.87
2018-12-15T19:25:20.643Z,15.00
2018-12-15T19:27:21.687Z,14.53
2018-12-15T19:29:22.748Z,14.63
2018-12-15T19:31:23.767Z,15.23
2018-12-15T19:33:24.822Z,15.73
2018-12-15T19:35:25.900Z,17.03
2018-12-15T19:37:27.015Z,13.87
2018-12-15T19:39:28.030Z,15.60
2018-12-15T19:41:29.054Z,16.97
2018-12-15T19:43:30.189Z,16.80
2018-12-15T19:45:31.355Z,17.10
2018-12-15T19:47:32.435Z,16.67
2018-12-15T19:49:33.441Z,14.50
2018-12-15T19:51:34.475Z,14.43
2018-12-15T19:53:35.484Z,14.47
2018-12-15T19:55:36.522Z,14.33
2018-12-15T19:57:37.526Z,14.40
2018-12-15T19:59:38.535Z,15.07
2018-12-15T20:01:39.567Z,14.53
2018-12-15T20:03:40.568Z,14.50
2018-12-15T20:05:41.587Z,14.40
2018-12-15T20:07:42.615Z,14.73
2018-12-15T20:09:43.623Z,14.00
2018-12-15T20:11:44.633Z,14.27
2018-12-15T20:13:45.657Z,15.13
2018-12-15T20:15:46.767Z,14.93
2018-12-15T20:17:47.790Z,15.00
2018-12-15T20:19:48.872Z,14.47
2018-12-15T20:21:49.950Z,15.10
2018-12-15T20:23:50.965Z,14.47
2018-12-15T20:25:52.062Z,14.67
2018-12-15T20:27:53.086Z,15.43
2018-12-15T20:29:54.104Z,16.03
2018-12-15T20:31:55.228Z,16.23
2018-12-15T20:33:56.358Z,16.00
2018-12-15T20:35:57.477Z,15.53
2018-12-15T20:37:58.514Z,15.50
2018-12-15T20:39:59.595Z,17.50
2018-12-15T20:42:00.712Z,16.77
2018-12-15T20:44:01.755Z,16.43
2018-12-15T20:46:02.779Z,15.70
2018-12-15T20:48:03.833Z,17.33
2018-12-15T20:50:04.779Z,17.20
2018-12-15T20:52:05.802Z,16.07
2018-12-15T20:54:06.812Z,17.50
2018-12-15T20:56:07.843Z,16.20
2018-12-15T20:58:08.980Z,17.00
2018-12-15T21:00:10.096Z,18.13
2018-12-15T21:02:11.030Z,18.60
2018-12-15T21:04:12.056Z,18.43
2018-12-15T21:06:12.987Z,16.93
2018-12-15T21:08:14.011Z,17.60
2018-12-15T21:10:15.040Z,19.20
2018-12-15T21:12:16.091Z,18.37
2018-12-15T21:14:17.110Z,17.93
2018-12-15T21:16:18.143Z,18.07
2018-12-15T21:18:19.161Z,17.77
2018-12-15T21:20:20.208Z,16.93
2018-12-15T21:22:21.291Z,17.33
2018-12-15T21:24:22.247Z,17.90
2018-12-15T21:26:23.282Z,17.07
2018-12-15T21:28:24.223Z,18.57
2018-12-15T21:30:25.252Z,18.63
2018-12-15T21:32:26.447Z,17.80
2018-12-15T21:34:27.470Z,18.40
2018-12-15T21:36:28.500Z,17.77
2018-12-15T21:38:29.554Z,18.63
2018-12-15T21:40:30.676Z,18.03
2018-12-15T21:42:31.832Z,18.70
2018-12-15T21:44:32.964Z,18.70
2018-12-15T21:46:33.979Z,18.43
2018-12-15T21:48:35.032Z,18.97
2018-12-15T21:50:36.043Z,18.03
2018-12-15T21:52:36.967Z,19.27
2018-12-15T21:54:38.051Z,19.60
2018-12-15T21:56:39.063Z,19.47
2018-12-15T21:58:40.164Z,19.93
2018-12-15T22:00:41.331Z,20.00
2018-12-15T22:02:42.422Z,19.27
2018-12-15T22:04:43.462Z,19.30
2018-12-15T22:06:44.507Z,19.60
2018-12-15T22:08:45.553Z,20.27
2018-12-15T22:10:46.678Z,19.10
2018-12-15T22:12:47.703Z,19.33
2018-12-15T22:14:48.734Z,19.33
2018-12-15T22:16:49.848Z,20.50
2018-12-15T22:18:50.880Z,18.70
2018-12-15T22:20:52.051Z,18.30
2018-12-15T22:22:53.188Z,18.70
2018-12-15T22:24:54.243Z,17.43
2018-12-15T22:26:55.356Z,17.83
2018-12-15T22:28:56.375Z,17.40
2018-12-15T22:30:57.459Z,19.07
2018-12-15T22:32:58.466Z,18.37
2018-12-15T22:34:59.503Z,18.20
2018-12-15T22:37:00.551Z,17.97
2018-12-15T22:39:01.631Z,18.30
2018-12-15T22:41:02.780Z,17.57
2018-12-15T22:43:03.831Z,18.10
2018-12-15T22:45:04.760Z,18.13
2018-12-15T22:47:05.886Z,17.53
2018-12-15T22:49:06.912Z,17.83
2018-12-15T22:51:07.979Z,18.07
2018-12-15T22:53:09.117Z,17.97
2018-12-15T22:55:10.274Z,17.83
2018-12-15T22:57:11.399Z,18.73
2018-12-15T22:59:12.618Z,18.83
2018-12-15T23:01:13.570Z,19.30
2018-12-15T23:03:15.214Z,17.77
2018-12-15T23:05:16.191Z,18.03
2018-12-15T23:07:17.323Z,18.00
2018-12-15T23:09:18.505Z,16.97
2018-12-15T23:11:19.562Z,19.10
2018-12-15T23:13:20.599Z,18.30
2018-12-15T23:15:21.668Z,17.37
2018-12-15T23:17:22.715Z,17.70
2018-12-15T23:19:23.763Z,18.10
2018-12-15T23:21:24.697Z,17.83
2018-12-15T23:23:25.819Z,17.67
2018-12-15T23:25:26.778Z,17.53
2018-12-15T23:27:27.942Z,17.87
2018-12-15T23:29:29.004Z,19.07
2018-12-15T23:31:30.143Z,18.33
2018-12-15T23:33:31.184Z,18.87
2018-12-15T23:35:32.215Z,17.87
2018-12-15T23:37:33.235Z,18.60
2018-12-15T23:39:34.280Z,18.37
2018-12-15T23:41:35.211Z,17.30
2018-12-15T23:43:36.244Z,17.13
2018-12-15T23:45:37.306Z,18.90
2018-12-15T23:47:38.352Z,18.13
2018-12-15T23:49:39.411Z,18.93
2018-12-15T23:51:40.430Z,16.90
2018-12-15T23:53:41.476Z,18.57
2018-12-15T23:55:42.616Z,19.70
2018-12-15T23:57:43.632Z,18.17
2018-12-15T23:59:44.695Z,19.03
